sensor_id;sensor_type;location;lat;lon;timestamp;temperature;humidity
8888;DHT22;4480;52.370;9.748;2023-08-01T00:00:17;16.60;99.90
8888;DHT22;4480;52.370;9.748;2023-08-01T00:02:43;16.50;99.90
8888;DHT22;4480;52.370;9.748;2023-08-01T00:05:10;16.50;99.90
8888;DHT22;4480;52.370;9.748;2023-08-01T00:07:38;16.60;99.90
8888;DHT22;4480;52.370;9.748;2023-08-01T00:10:06;16.50;99.90
8888;DHT22;4480;52.370;9.748;2023-08-01T00:12:33;16.50;99.90
8888;DHT22;4480;52.370;9.748;2023-08-01T00:15:00;16.50;99.90
8888;DHT22;4480;52.370;9.748;2023-08-01T00:17:26;16.50;99.90
8888;DHT22;4480;52.370;9.748;2023-08-01T00:19:53;16.50;99.90
8888;DHT22;4480;52.370;9.748;2023-08-01T00:22:21;16.50;99.90
8888;DHT22;4480;52.370;9.748;2023-08-01T00:24:49;16.50;99.90
8888;DHT22;4480;52.370;9.748;2023-08-01T00:27:15;16.50;99.90
8888;DHT22;4480;52.370;9.748;2023-08-01T00:29:42;16.50;99.90
8888;DHT22;4480;52.370;9.748;2023-08-01T00:32:09;16.50;99.90
8888;DHT22;4480;52.370;9.748;2023-08-01T00:34:36;16.50;99.90
8888;DHT22;4480;52.370;9.748;2023-08-01T00:37:04;16.50;99.90
8888;DHT22;4480;52.370;9.748;2023-08-01T00:39:31;16.50;99.90
8888;DHT22;4480;52.370;9.748;2023-08-01T00:41:59;16.60;99.90
8888;DHT22;4480;52.370;9.748;2023-08-01T00:44:26;16.50;99.90
8888;DHT22;4480;52.370;9.748;2023-08-01T00:46:53;16.60;99.90
8888;DHT22;4480;52.370;9.748;2023-08-01T00:49:20;16.60;99.90
8888;DHT22;4480;52.370;9.748;2023-08-01T00:51:47;16.60;99.90
8888;DHT22;4480;52.370;9.748;2023-08-01T00:54:14;16.60;99.90
8888;DHT22;4480;52.370;9.748;2023-08-01T00:56:41;16.60;99.90
8888;DHT22;4480;52.370;9.748;2023-08-01T00:59:10;16.60;99.90
8888;DHT22;4480;52.370;9.748;2023-08-01T01:01:36;16.60;99.90
8888;DHT22;4480;52.370;9.748;2023-08-01T01:04:03;16.60;99.90
8888;DHT22;4480;52.370;9.748;2023-08-01T01:06:32;16.60;99.90
8888;DHT22;4480;52.370;9.748;2023-08-01T01:09:01;16.60;99.90
8888;DHT22;4480;52.370;9.748;2023-08-01T01:11:30;16.60;99.90
8888;DHT22;4480;52.370;9.748;2023-08-01T01:13:57;16.60;99.90
8888;DHT22;4480;52.370;9.748;2023-08-01T01:16:25;16.70;99.90
8888;DHT22;4480;52.370;9.748;2023-08-01T01:18:52;16.70;99.90
8888;DHT22;4480;52.370;9.748;2023-08-01T01:21:20;16.70;99.90
8888;DHT22;4480;52.370;9.748;2023-08-01T01:23:47;16.70;99.90
8888;DHT22;4480;52.370;9.748;2023-08-01T01:26:16;16.70;99.90
8888;DHT22;4480;52.370;9.748;2023-08-01T01:28:46;16.70;99.90
8888;DHT22;4480;52.370;9.748;2023-08-01T01:31:14;16.70;99.90
8888;DHT22;4480;52.370;9.748;2023-08-01T01:33:41;16.70;99.90
8888;DHT22;4480;52.370;9.748;2023-08-01T01:36:08;16.70;99.90
8888;DHT22;4480;52.370;9.748;2023-08-01T01:38:36;16.70;99.90
8888;DHT22;4480;52.370;9.748;2023-08-01T01:41:03;16.70;99.90
8888;DHT22;4480;52.370;9.748;2023-08-01T01:43:30;16.70;99.90
8888;DHT22;4480;52.370;9.748;2023-08-01T01:45:57;16.70;99.90
8888;DHT22;4480;52.370;9.748;2023-08-01T01:48:24;16.70;99.90
8888;DHT22;4480;52.370;9.748;2023-08-01T01:50:50;16.70;99.90
8888;DHT22;4480;52.370;9.748;2023-08-01T01:53:17;16.70;99.90
8888;DHT22;4480;52.370;9.748;2023-08-01T01:55:45;16.70;99.90
8888;DHT22;4480;52.370;9.748;2023-08-01T01:58:12;16.70;99.90
8888;DHT22;4480;52.370;9.748;2023-08-01T02:00:39;16.70;99.90
8888;DHT22;4480;52.370;9.748;2023-08-01T02:03:06;16.70;99.90
8888;DHT22;4480;52.370;9.748;2023-08-01T02:05:35;16.70;99.90
8888;DHT22;4480;52.370;9.748;2023-08-01T02:08:02;16.70;99.90
8888;DHT22;4480;52.370;9.748;2023-08-01T02:10:30;16.70;99.90
8888;DHT22;4480;52.370;9.748;2023-08-01T02:12:58;16.70;99.90
8888;DHT22;4480;52.370;9.748;2023-08-01T02:15:26;16.70;99.90
8888;DHT22;4480;52.370;9.748;2023-08-01T02:17:52;16.70;99.90
8888;DHT22;4480;52.370;9.748;2023-08-01T02:20:19;16.70;99.90
8888;DHT22;4480;52.370;9.748;2023-08-01T02:22:46;16.70;99.90
8888;DHT22;4480;52.370;9.748;2023-08-01T02:25:13;16.70;99.90
8888;DHT22;4480;52.370;9.748;2023-08-01T02:27:39;16.70;99.90
8888;DHT22;4480;52.370;9.748;2023-08-01T02:30:09;16.70;99.90
8888;DHT22;4480;52.370;9.748;2023-08-01T02:32:37;16.70;99.90
8888;DHT22;4480;52.370;9.748;2023-08-01T02:35:04;16.60;99.90
8888;DHT22;4480;52.370;9.748;2023-08-01T02:37:31;16.60;99.90
8888;DHT22;4480;52.370;9.748;2023-08-01T02:39:58;16.60;99.90
8888;DHT22;4480;52.370;9.748;2023-08-01T02:42:25;16.60;99.90
8888;DHT22;4480;52.370;9.748;2023-08-01T02:44:52;16.60;99.90
8888;DHT22;4480;52.370;9.748;2023-08-01T02:47:20;16.50;99.90
8888;DHT22;4480;52.370;9.748;2023-08-01T02:49:46;16.50;99.90
8888;DHT22;4480;52.370;9.748;2023-08-01T02:52:13;16.50;99.90
8888;DHT22;4480;52.370;9.748;2023-08-01T02:54:40;16.50;99.90
8888;DHT22;4480;52.370;9.748;2023-08-01T02:57:07;16.40;99.90
8888;DHT22;4480;52.370;9.748;2023-08-01T02:59:34;16.40;99.90
8888;DHT22;4480;52.370;9.748;2023-08-01T03:02:01;16.40;99.90
8888;DHT22;4480;52.370;9.748;2023-08-01T03:04:29;16.40;99.90
8888;DHT22;4480;52.370;9.748;2023-08-01T03:06:56;16.40;99.90
8888;DHT22;4480;52.370;9.748;2023-08-01T03:09:23;16.40;99.90
8888;DHT22;4480;52.370;9.748;2023-08-01T03:11:50;16.40;99.90
8888;DHT22;4480;52.370;9.748;2023-08-01T03:14:16;16.40;99.90
8888;DHT22;4480;52.370;9.748;2023-08-01T03:16:43;16.30;99.90
8888;DHT22;4480;52.370;9.748;2023-08-01T03:19:10;16.30;99.90
8888;DHT22;4480;52.370;9.748;2023-08-01T03:21:38;16.30;99.90
8888;DHT22;4480;52.370;9.748;2023-08-01T03:24:05;16.30;99.90
8888;DHT22;4480;52.370;9.748;2023-08-01T03:26:34;16.30;99.90
8888;DHT22;4480;52.370;9.748;2023-08-01T03:29:01;16.30;99.90
8888;DHT22;4480;52.370;9.748;2023-08-01T03:31:29;16.20;99.90
8888;DHT22;4480;52.370;9.748;2023-08-01T03:33:55;16.20;99.90
8888;DHT22;4480;52.370;9.748;2023-08-01T03:36:24;16.20;99.90
8888;DHT22;4480;52.370;9.748;2023-08-01T03:38:52;16.20;99.90
8888;DHT22;4480;52.370;9.748;2023-08-01T03:41:19;16.20;99.90
8888;DHT22;4480;52.370;9.748;2023-08-01T03:43:45;16.20;99.90
8888;DHT22;4480;52.370;9.748;2023-08-01T03:46:12;16.20;99.90
8888;DHT22;4480;52.370;9.748;2023-08-01T03:48:39;16.20;99.90
8888;DHT22;4480;52.370;9.748;2023-08-01T03:51:06;16.20;99.90
8888;DHT22;4480;52.370;9.748;2023-08-01T03:53:33;16.20;99.90
8888;DHT22;4480;52.370;9.748;2023-08-01T03:56:01;16.20;99.90
8888;DHT22;4480;52.370;9.748;2023-08-01T03:58:28;16.20;99.90
8888;DHT22;4480;52.370;9.748;2023-08-01T04:00:55;16.20;99.90
8888;DHT22;4480;52.370;9.748;2023-08-01T04:03:21;16.20;99.90
8888;DHT22;4480;52.370;9.748;2023-08-01T04:05:48;16.20;99.90
8888;DHT22;4480;52.370;9.748;2023-08-01T04:08:15;16.20;99.90
8888;DHT22;4480;52.370;9.748;2023-08-01T04:12:00;16.20;99.90
8888;DHT22;4480;52.370;9.748;2023-08-01T04:14:27;16.20;99.90
8888;DHT22;4480;52.370;9.748;2023-08-01T04:16:54;16.20;99.90
8888;DHT22;4480;52.370;9.748;2023-08-01T04:19:21;16.20;99.90
8888;DHT22;4480;52.370;9.748;2023-08-01T04:21:47;16.20;99.90
8888;DHT22;4480;52.370;9.748;2023-08-01T04:24:14;16.20;99.90
8888;DHT22;4480;52.370;9.748;2023-08-01T04:26:41;16.20;99.90
8888;DHT22;4480;52.370;9.748;2023-08-01T04:29:09;16.20;99.90
8888;DHT22;4480;52.370;9.748;2023-08-01T04:31:36;16.20;99.90
8888;DHT22;4480;52.370;9.748;2023-08-01T04:34:03;16.20;99.90
8888;DHT22;4480;52.370;9.748;2023-08-01T04:36:29;16.20;99.90
8888;DHT22;4480;52.370;9.748;2023-08-01T04:38:56;16.20;99.90
8888;DHT22;4480;52.370;9.748;2023-08-01T04:41:23;16.20;99.90
8888;DHT22;4480;52.370;9.748;2023-08-01T04:43:50;16.20;99.90
8888;DHT22;4480;52.370;9.748;2023-08-01T04:46:18;16.20;99.90
8888;DHT22;4480;52.370;9.748;2023-08-01T04:48:45;16.20;99.90
8888;DHT22;4480;52.370;9.748;2023-08-01T04:51:11;16.20;99.90
8888;DHT22;4480;52.370;9.748;2023-08-01T04:53:38;16.20;99.90
8888;DHT22;4480;52.370;9.748;2023-08-01T04:56:05;16.10;99.90
8888;DHT22;4480;52.370;9.748;2023-08-01T04:58:32;16.10;99.90
8888;DHT22;4480;52.370;9.748;2023-08-01T05:00:58;16.10;99.90
8888;DHT22;4480;52.370;9.748;2023-08-01T05:03:27;16.10;99.90
8888;DHT22;4480;52.370;9.748;2023-08-01T05:05:53;16.10;99.90
8888;DHT22;4480;52.370;9.748;2023-08-01T05:08:20;16.10;99.90
8888;DHT22;4480;52.370;9.748;2023-08-01T05:10:47;16.00;99.90
8888;DHT22;4480;52.370;9.748;2023-08-01T05:13:14;16.00;99.90
8888;DHT22;4480;52.370;9.748;2023-08-01T05:15:43;16.10;99.90
8888;DHT22;4480;52.370;9.748;2023-08-01T05:18:10;16.10;99.90
8888;DHT22;4480;52.370;9.748;2023-08-01T05:20:38;16.10;99.90
8888;DHT22;4480;52.370;9.748;2023-08-01T05:23:05;16.10;99.90
8888;DHT22;4480;52.370;9.748;2023-08-01T05:25:31;16.20;99.90
8888;DHT22;4480;52.370;9.748;2023-08-01T05:27:58;16.20;99.90
8888;DHT22;4480;52.370;9.748;2023-08-01T05:30:25;16.20;99.90
8888;DHT22;4480;52.370;9.748;2023-08-01T05:32:52;16.20;99.90
8888;DHT22;4480;52.370;9.748;2023-08-01T05:35:19;16.30;99.90
8888;DHT22;4480;52.370;9.748;2023-08-01T05:37:48;16.30;99.90
8888;DHT22;4480;52.370;9.748;2023-08-01T05:40:14;16.40;99.90
8888;DHT22;4480;52.370;9.748;2023-08-01T05:42:41;16.50;99.90
8888;DHT22;4480;52.370;9.748;2023-08-01T05:45:09;16.50;99.90
8888;DHT22;4480;52.370;9.748;2023-08-01T05:47:36;16.60;99.90
8888;DHT22;4480;52.370;9.748;2023-08-01T05:50:06;16.70;99.90
8888;DHT22;4480;52.370;9.748;2023-08-01T05:52:33;16.70;99.90
8888;DHT22;4480;52.370;9.748;2023-08-01T05:55:02;16.80;99.90
8888;DHT22;4480;52.370;9.748;2023-08-01T05:57:29;16.80;99.90
8888;DHT22;4480;52.370;9.748;2023-08-01T05:59:56;17.00;99.90
8888;DHT22;4480;52.370;9.748;2023-08-01T06:02:23;17.00;99.90
8888;DHT22;4480;52.370;9.748;2023-08-01T06:04:49;17.10;99.90
8888;DHT22;4480;52.370;9.748;2023-08-01T06:07:16;17.10;99.90
8888;DHT22;4480;52.370;9.748;2023-08-01T06:09:48;17.20;99.90
8888;DHT22;4480;52.370;9.748;2023-08-01T06:12:17;17.20;99.90
8888;DHT22;4480;52.370;9.748;2023-08-01T06:14:44;17.20;99.90
8888;DHT22;4480;52.370;9.748;2023-08-01T06:17:11;17.30;99.90
8888;DHT22;4480;52.370;9.748;2023-08-01T06:19:38;17.30;99.90
8888;DHT22;4480;52.370;9.748;2023-08-01T06:22:05;17.20;99.90
8888;DHT22;4480;52.370;9.748;2023-08-01T06:24:32;17.10;99.90
8888;DHT22;4480;52.370;9.748;2023-08-01T06:26:59;17.10;99.90
8888;DHT22;4480;52.370;9.748;2023-08-01T06:29:27;17.10;99.90
8888;DHT22;4480;52.370;9.748;2023-08-01T06:31:54;17.00;99.90
8888;DHT22;4480;52.370;9.748;2023-08-01T06:34:20;16.90;99.90
8888;DHT22;4480;52.370;9.748;2023-08-01T06:36:47;17.00;99.90
8888;DHT22;4480;52.370;9.748;2023-08-01T06:39:14;17.00;99.90
8888;DHT22;4480;52.370;9.748;2023-08-01T06:41:41;17.00;99.90
8888;DHT22;4480;52.370;9.748;2023-08-01T06:44:08;17.00;99.90
8888;DHT22;4480;52.370;9.748;2023-08-01T06:46:36;17.10;99.90
8888;DHT22;4480;52.370;9.748;2023-08-01T06:49:03;17.20;99.90
8888;DHT22;4480;52.370;9.748;2023-08-01T06:51:29;17.30;99.90
8888;DHT22;4480;52.370;9.748;2023-08-01T06:53:56;17.30;99.90
8888;DHT22;4480;52.370;9.748;2023-08-01T06:56:23;17.30;99.90
8888;DHT22;4480;52.370;9.748;2023-08-01T06:58:50;17.30;99.90
8888;DHT22;4480;52.370;9.748;2023-08-01T07:01:17;17.30;99.90
8888;DHT22;4480;52.370;9.748;2023-08-01T07:03:45;17.30;99.90
8888;DHT22;4480;52.370;9.748;2023-08-01T07:06:12;17.30;99.90
8888;DHT22;4480;52.370;9.748;2023-08-01T07:08:38;17.30;99.90
8888;DHT22;4480;52.370;9.748;2023-08-01T07:11:05;17.30;99.90
8888;DHT22;4480;52.370;9.748;2023-08-01T07:13:32;17.40;99.90
8888;DHT22;4480;52.370;9.748;2023-08-01T07:15:59;17.40;99.90
8888;DHT22;4480;52.370;9.748;2023-08-01T07:18:25;17.50;99.90
8888;DHT22;4480;52.370;9.748;2023-08-01T07:21:00;17.50;99.90
8888;DHT22;4480;52.370;9.748;2023-08-01T07:23:27;17.60;99.90
8888;DHT22;4480;52.370;9.748;2023-08-01T07:25:54;17.70;99.90
8888;DHT22;4480;52.370;9.748;2023-08-01T07:28:21;17.70;99.90
8888;DHT22;4480;52.370;9.748;2023-08-01T07:30:48;17.80;99.90
8888;DHT22;4480;52.370;9.748;2023-08-01T07:33:15;17.80;99.90
8888;DHT22;4480;52.370;9.748;2023-08-01T07:35:41;17.80;99.90
8888;DHT22;4480;52.370;9.748;2023-08-01T07:38:09;17.90;99.90
8888;DHT22;4480;52.370;9.748;2023-08-01T07:40:36;18.00;99.90
8888;DHT22;4480;52.370;9.748;2023-08-01T07:43:03;18.00;99.90
8888;DHT22;4480;52.370;9.748;2023-08-01T07:45:33;18.10;99.90
8888;DHT22;4480;52.370;9.748;2023-08-01T07:48:00;18.10;99.90
8888;DHT22;4480;52.370;9.748;2023-08-01T07:50:27;18.20;99.90
8888;DHT22;4480;52.370;9.748;2023-08-01T07:52:53;18.20;99.90
8888;DHT22;4480;52.370;9.748;2023-08-01T07:55:22;18.20;99.90
8888;DHT22;4480;52.370;9.748;2023-08-01T07:57:48;18.10;99.90
8888;DHT22;4480;52.370;9.748;2023-08-01T08:00:16;18.10;99.90
8888;DHT22;4480;52.370;9.748;2023-08-01T08:02:44;18.10;99.90
8888;DHT22;4480;52.370;9.748;2023-08-01T08:05:11;18.20;99.90
8888;DHT22;4480;52.370;9.748;2023-08-01T08:07:38;18.20;99.90
8888;DHT22;4480;52.370;9.748;2023-08-01T08:10:06;18.30;99.90
8888;DHT22;4480;52.370;9.748;2023-08-01T08:12:34;18.40;99.90
8888;DHT22;4480;52.370;9.748;2023-08-01T08:15:01;18.40;99.90
8888;DHT22;4480;52.370;9.748;2023-08-01T08:17:28;18.50;99.90
8888;DHT22;4480;52.370;9.748;2023-08-01T08:19:55;18.60;99.90
8888;DHT22;4480;52.370;9.748;2023-08-01T08:22:22;18.80;99.90
8888;DHT22;4480;52.370;9.748;2023-08-01T08:24:48;18.90;99.90
8888;DHT22;4480;52.370;9.748;2023-08-01T08:27:15;19.10;99.90
8888;DHT22;4480;52.370;9.748;2023-08-01T08:29:43;19.20;99.90
8888;DHT22;4480;52.370;9.748;2023-08-01T08:32:10;19.10;99.90
8888;DHT22;4480;52.370;9.748;2023-08-01T08:34:37;19.10;99.90
8888;DHT22;4480;52.370;9.748;2023-08-01T08:37:05;19.20;99.90
8888;DHT22;4480;52.370;9.748;2023-08-01T08:39:32;19.30;99.90
8888;DHT22;4480;52.370;9.748;2023-08-01T08:41:59;19.40;99.90
8888;DHT22;4480;52.370;9.748;2023-08-01T08:44:26;19.60;99.90
8888;DHT22;4480;52.370;9.748;2023-08-01T08:47:00;19.70;99.90
8888;DHT22;4480;52.370;9.748;2023-08-01T08:49:29;19.90;99.90
8888;DHT22;4480;52.370;9.748;2023-08-01T08:51:58;20.20;99.90
8888;DHT22;4480;52.370;9.748;2023-08-01T08:54:26;20.10;99.90
8888;DHT22;4480;52.370;9.748;2023-08-01T08:56:53;20.00;99.90
8888;DHT22;4480;52.370;9.748;2023-08-01T08:59:21;19.90;99.90
8888;DHT22;4480;52.370;9.748;2023-08-01T09:01:48;19.60;99.90
8888;DHT22;4480;52.370;9.748;2023-08-01T09:04:16;19.60;99.90
8888;DHT22;4480;52.370;9.748;2023-08-01T09:06:45;19.50;99.90
8888;DHT22;4480;52.370;9.748;2023-08-01T09:09:13;19.60;99.90
8888;DHT22;4480;52.370;9.748;2023-08-01T09:11:45;19.70;99.90
8888;DHT22;4480;52.370;9.748;2023-08-01T09:14:12;19.80;99.90
8888;DHT22;4480;52.370;9.748;2023-08-01T09:16:40;20.00;99.90
8888;DHT22;4480;52.370;9.748;2023-08-01T09:19:07;20.20;99.90
8888;DHT22;4480;52.370;9.748;2023-08-01T09:21:36;20.30;99.90
8888;DHT22;4480;52.370;9.748;2023-08-01T09:24:10;20.50;99.90
8888;DHT22;4480;52.370;9.748;2023-08-01T09:26:38;20.60;99.90
8888;DHT22;4480;52.370;9.748;2023-08-01T09:29:05;20.90;99.90
8888;DHT22;4480;52.370;9.748;2023-08-01T09:31:33;21.20;99.90
8888;DHT22;4480;52.370;9.748;2023-08-01T09:34:01;21.20;99.90
8888;DHT22;4480;52.370;9.748;2023-08-01T09:36:29;21.30;99.90
8888;DHT22;4480;52.370;9.748;2023-08-01T09:39:02;21.30;97.90
8888;DHT22;4480;52.370;9.748;2023-08-01T09:41:30;21.30;97.70
8888;DHT22;4480;52.370;9.748;2023-08-01T09:43:57;21.30;97.90
8888;DHT22;4480;52.370;9.748;2023-08-01T09:46:24;21.40;97.00
8888;DHT22;4480;52.370;9.748;2023-08-01T09:48:54;21.50;96.60
8888;DHT22;4480;52.370;9.748;2023-08-01T09:51:45;21.50;95.60
8888;DHT22;4480;52.370;9.748;2023-08-01T09:54:13;21.30;94.80
8888;DHT22;4480;52.370;9.748;2023-08-01T09:56:40;21.10;95.60
8888;DHT22;4480;52.370;9.748;2023-08-01T09:59:10;21.00;95.30
8888;DHT22;4480;52.370;9.748;2023-08-01T10:01:38;21.00;94.00
8888;DHT22;4480;52.370;9.748;2023-08-01T10:04:07;21.10;93.40
8888;DHT22;4480;52.370;9.748;2023-08-01T10:06:37;21.30;92.60
8888;DHT22;4480;52.370;9.748;2023-08-01T10:09:05;21.30;91.90
8888;DHT22;4480;52.370;9.748;2023-08-01T10:11:34;21.30;92.20
8888;DHT22;4480;52.370;9.748;2023-08-01T10:14:03;21.30;92.60
8888;DHT22;4480;52.370;9.748;2023-08-01T10:16:30;21.50;92.90
8888;DHT22;4480;52.370;9.748;2023-08-01T10:18:58;21.50;92.20
8888;DHT22;4480;52.370;9.748;2023-08-01T10:21:26;21.40;91.70
8888;DHT22;4480;52.370;9.748;2023-08-01T10:23:54;21.40;91.30
8888;DHT22;4480;52.370;9.748;2023-08-01T10:26:21;21.40;90.50
8888;DHT22;4480;52.370;9.748;2023-08-01T10:28:52;21.30;89.20
8888;DHT22;4480;52.370;9.748;2023-08-01T10:31:20;21.50;89.20
8888;DHT22;4480;52.370;9.748;2023-08-01T10:33:48;21.80;87.90
8888;DHT22;4480;52.370;9.748;2023-08-01T10:36:16;22.00;86.50
8888;DHT22;4480;52.370;9.748;2023-08-01T10:38:48;22.30;85.00
8888;DHT22;4480;52.370;9.748;2023-08-01T10:41:24;22.20;84.20
8888;DHT22;4480;52.370;9.748;2023-08-01T10:44:03;22.30;83.70
8888;DHT22;4480;52.370;9.748;2023-08-01T10:46:45;22.40;82.40
8888;DHT22;4480;52.370;9.748;2023-08-01T10:49:12;22.50;81.40
8888;DHT22;4480;52.370;9.748;2023-08-01T10:51:39;22.50;81.70
8888;DHT22;4480;52.370;9.748;2023-08-01T10:54:05;22.60;80.80
8888;DHT22;4480;52.370;9.748;2023-08-01T10:56:33;22.60;80.90
8888;DHT22;4480;52.370;9.748;2023-08-01T10:59:05;22.70;80.60
8888;DHT22;4480;52.370;9.748;2023-08-01T11:01:43;22.70;78.50
8888;DHT22;4480;52.370;9.748;2023-08-01T11:04:14;22.60;77.80
8888;DHT22;4480;52.370;9.748;2023-08-01T11:06:44;22.70;78.40
8888;DHT22;4480;52.370;9.748;2023-08-01T11:09:18;22.90;77.50
8888;DHT22;4480;52.370;9.748;2023-08-01T11:11:46;23.20;77.10
8888;DHT22;4480;52.370;9.748;2023-08-01T11:14:16;23.40;76.50
8888;DHT22;4480;52.370;9.748;2023-08-01T11:16:45;23.30;75.30
8888;DHT22;4480;52.370;9.748;2023-08-01T11:19:20;23.20;75.40
8888;DHT22;4480;52.370;9.748;2023-08-01T11:21:47;23.30;75.60
8888;DHT22;4480;52.370;9.748;2023-08-01T11:24:15;23.40;74.80
8888;DHT22;4480;52.370;9.748;2023-08-01T11:26:43;23.60;74.00
8888;DHT22;4480;52.370;9.748;2023-08-01T11:29:10;23.90;71.80
8888;DHT22;4480;52.370;9.748;2023-08-01T11:31:39;23.90;69.70
8888;DHT22;4480;52.370;9.748;2023-08-01T11:34:07;23.90;68.50
8888;DHT22;4480;52.370;9.748;2023-08-01T11:36:53;23.80;68.10
8888;DHT22;4480;52.370;9.748;2023-08-01T11:39:20;23.50;67.90
8888;DHT22;4480;52.370;9.748;2023-08-01T11:41:48;23.10;68.50
8888;DHT22;4480;52.370;9.748;2023-08-01T11:44:15;22.60;70.20
8888;DHT22;4480;52.370;9.748;2023-08-01T11:46:43;22.10;72.50
8888;DHT22;4480;52.370;9.748;2023-08-01T11:49:14;21.30;80.00
8888;DHT22;4480;52.370;9.748;2023-08-01T11:51:42;20.30;88.70
8888;DHT22;4480;52.370;9.748;2023-08-01T11:54:09;19.60;96.00
8888;DHT22;4480;52.370;9.748;2023-08-01T11:56:37;19.20;99.90
8888;DHT22;4480;52.370;9.748;2023-08-01T11:59:11;18.90;99.90
8888;DHT22;4480;52.370;9.748;2023-08-01T12:01:39;18.90;99.90
8888;DHT22;4480;52.370;9.748;2023-08-01T12:04:07;18.90;99.90
8888;DHT22;4480;52.370;9.748;2023-08-01T12:06:34;19.20;99.90
8888;DHT22;4480;52.370;9.748;2023-08-01T12:09:22;19.50;99.90
8888;DHT22;4480;52.370;9.748;2023-08-01T12:11:59;19.80;99.90
8888;DHT22;4480;52.370;9.748;2023-08-01T12:14:26;20.30;99.90
8888;DHT22;4480;52.370;9.748;2023-08-01T12:16:54;20.60;99.90
8888;DHT22;4480;52.370;9.748;2023-08-01T12:19:22;20.90;99.90
8888;DHT22;4480;52.370;9.748;2023-08-01T12:21:49;21.10;99.90
8888;DHT22;4480;52.370;9.748;2023-08-01T12:24:16;21.70;99.90
8888;DHT22;4480;52.370;9.748;2023-08-01T12:26:43;22.50;97.70
8888;DHT22;4480;52.370;9.748;2023-08-01T12:29:10;23.10;94.00
8888;DHT22;4480;52.370;9.748;2023-08-01T12:31:37;22.90;92.50
8888;DHT22;4480;52.370;9.748;2023-08-01T12:34:04;22.60;92.30
8888;DHT22;4480;52.370;9.748;2023-08-01T12:36:32;22.10;92.40
8888;DHT22;4480;52.370;9.748;2023-08-01T12:38:59;21.40;91.50
8888;DHT22;4480;52.370;9.748;2023-08-01T12:41:26;20.60;93.10
8888;DHT22;4480;52.370;9.748;2023-08-01T12:43:52;20.10;95.30
8888;DHT22;4480;52.370;9.748;2023-08-01T12:46:19;19.70;97.10
8888;DHT22;4480;52.370;9.748;2023-08-01T12:48:46;19.50;99.20
8888;DHT22;4480;52.370;9.748;2023-08-01T12:51:13;19.40;99.90
8888;DHT22;4480;52.370;9.748;2023-08-01T12:53:42;19.40;99.90
8888;DHT22;4480;52.370;9.748;2023-08-01T12:56:09;19.40;99.90
8888;DHT22;4480;52.370;9.748;2023-08-01T12:58:35;19.50;99.90
8888;DHT22;4480;52.370;9.748;2023-08-01T13:01:03;19.50;99.90
8888;DHT22;4480;52.370;9.748;2023-08-01T13:03:30;19.60;99.90
8888;DHT22;4480;52.370;9.748;2023-08-01T13:05:56;19.70;99.90
8888;DHT22;4480;52.370;9.748;2023-08-01T13:08:23;20.00;99.90
8888;DHT22;4480;52.370;9.748;2023-08-01T13:10:52;20.10;99.90
8888;DHT22;4480;52.370;9.748;2023-08-01T13:13:19;20.30;99.90
8888;DHT22;4480;52.370;9.748;2023-08-01T13:15:45;20.40;99.90
8888;DHT22;4480;52.370;9.748;2023-08-01T13:18:13;20.40;99.90
8888;DHT22;4480;52.370;9.748;2023-08-01T13:20:40;20.20;99.90
8888;DHT22;4480;52.370;9.748;2023-08-01T13:23:07;20.10;99.90
8888;DHT22;4480;52.370;9.748;2023-08-01T13:25:34;19.80;99.90
8888;DHT22;4480;52.370;9.748;2023-08-01T13:28:03;19.40;99.90
8888;DHT22;4480;52.370;9.748;2023-08-01T13:30:30;18.90;99.90
8888;DHT22;4480;52.370;9.748;2023-08-01T13:32:57;18.50;99.90
8888;DHT22;4480;52.370;9.748;2023-08-01T13:35:23;18.00;99.90
8888;DHT22;4480;52.370;9.748;2023-08-01T13:37:50;17.60;99.90
8888;DHT22;4480;52.370;9.748;2023-08-01T13:40:17;17.20;99.90
8888;DHT22;4480;52.370;9.748;2023-08-01T13:42:44;17.00;99.90
8888;DHT22;4480;52.370;9.748;2023-08-01T13:45:12;16.80;99.90
8888;DHT22;4480;52.370;9.748;2023-08-01T13:47:39;16.80;99.90
8888;DHT22;4480;52.370;9.748;2023-08-01T13:50:06;16.90;99.90
8888;DHT22;4480;52.370;9.748;2023-08-01T13:52:34;17.00;99.90
8888;DHT22;4480;52.370;9.748;2023-08-01T13:55:03;17.20;99.90
8888;DHT22;4480;52.370;9.748;2023-08-01T13:57:30;17.50;99.90
8888;DHT22;4480;52.370;9.748;2023-08-01T13:59:57;17.80;99.90
8888;DHT22;4480;52.370;9.748;2023-08-01T14:02:25;18.10;99.90
8888;DHT22;4480;52.370;9.748;2023-08-01T14:04:54;18.50;99.90
8888;DHT22;4480;52.370;9.748;2023-08-01T14:07:21;18.70;99.90
8888;DHT22;4480;52.370;9.748;2023-08-01T14:09:48;18.80;99.90
8888;DHT22;4480;52.370;9.748;2023-08-01T14:12:15;18.90;99.90
8888;DHT22;4480;52.370;9.748;2023-08-01T14:14:44;19.00;99.90
8888;DHT22;4480;52.370;9.748;2023-08-01T14:17:11;19.20;99.90
8888;DHT22;4480;52.370;9.748;2023-08-01T14:19:39;19.40;99.90
8888;DHT22;4480;52.370;9.748;2023-08-01T14:22:06;19.50;99.90
8888;DHT22;4480;52.370;9.748;2023-08-01T14:24:33;19.60;99.90
8888;DHT22;4480;52.370;9.748;2023-08-01T14:26:59;19.60;99.90
8888;DHT22;4480;52.370;9.748;2023-08-01T14:29:26;19.60;99.90
8888;DHT22;4480;52.370;9.748;2023-08-01T14:31:53;19.60;99.90
8888;DHT22;4480;52.370;9.748;2023-08-01T14:34:20;19.60;99.90
8888;DHT22;4480;52.370;9.748;2023-08-01T14:36:48;19.60;99.90
8888;DHT22;4480;52.370;9.748;2023-08-01T14:39:15;19.80;99.90
8888;DHT22;4480;52.370;9.748;2023-08-01T14:41:41;20.00;99.90
8888;DHT22;4480;52.370;9.748;2023-08-01T14:44:08;20.30;99.90
8888;DHT22;4480;52.370;9.748;2023-08-01T14:46:36;20.50;99.90
8888;DHT22;4480;52.370;9.748;2023-08-01T14:49:02;20.70;99.90
8888;DHT22;4480;52.370;9.748;2023-08-01T14:51:29;20.80;99.90
8888;DHT22;4480;52.370;9.748;2023-08-01T14:53:57;21.00;99.90
8888;DHT22;4480;52.370;9.748;2023-08-01T14:56:24;21.00;99.90
8888;DHT22;4480;52.370;9.748;2023-08-01T14:58:51;21.00;98.40
8888;DHT22;4480;52.370;9.748;2023-08-01T15:01:18;21.00;97.10
8888;DHT22;4480;52.370;9.748;2023-08-01T15:03:45;21.00;95.60
8888;DHT22;4480;52.370;9.748;2023-08-01T15:06:11;20.90;94.80
8888;DHT22;4480;52.370;9.748;2023-08-01T15:08:40;20.80;93.90
8888;DHT22;4480;52.370;9.748;2023-08-01T15:11:09;20.80;94.50
8888;DHT22;4480;52.370;9.748;2023-08-01T15:13:35;20.80;94.50
8888;DHT22;4480;52.370;9.748;2023-08-01T15:16:03;20.90;94.10
8888;DHT22;4480;52.370;9.748;2023-08-01T15:18:30;20.80;93.90
8888;DHT22;4480;52.370;9.748;2023-08-01T15:20:56;20.80;94.40
8888;DHT22;4480;52.370;9.748;2023-08-01T15:23:23;20.90;94.70
8888;DHT22;4480;52.370;9.748;2023-08-01T15:25:54;21.00;94.10
8888;DHT22;4480;52.370;9.748;2023-08-01T15:28:23;21.10;94.00
8888;DHT22;4480;52.370;9.748;2023-08-01T15:31:01;21.30;93.70
8888;DHT22;4480;52.370;9.748;2023-08-01T15:33:30;21.30;92.60
8888;DHT22;4480;52.370;9.748;2023-08-01T15:36:00;21.30;92.40
8888;DHT22;4480;52.370;9.748;2023-08-01T15:38:27;21.30;92.40
8888;DHT22;4480;52.370;9.748;2023-08-01T15:40:54;21.30;92.00
8888;DHT22;4480;52.370;9.748;2023-08-01T15:43:22;21.20;91.90
8888;DHT22;4480;52.370;9.748;2023-08-01T15:45:50;21.20;92.00
8888;DHT22;4480;52.370;9.748;2023-08-01T15:48:17;21.20;91.70
8888;DHT22;4480;52.370;9.748;2023-08-01T15:50:44;21.40;91.30
8888;DHT22;4480;52.370;9.748;2023-08-01T15:53:12;21.50;90.90
8888;DHT22;4480;52.370;9.748;2023-08-01T15:55:38;21.70;90.50
8888;DHT22;4480;52.370;9.748;2023-08-01T15:58:05;21.80;90.00
8888;DHT22;4480;52.370;9.748;2023-08-01T16:00:32;21.70;86.50
8888;DHT22;4480;52.370;9.748;2023-08-01T16:03:01;21.70;84.80
8888;DHT22;4480;52.370;9.748;2023-08-01T16:05:30;21.90;82.70